createdAt,value
2019-02-20T00:00:57.946Z,2.39
2019-02-20T00:06:05.053Z,2.46
2019-02-20T00:11:10.238Z,2.46
2019-02-20T00:16:15.427Z,2.62
2019-02-20T00:21:20.629Z,2.65
2019-02-20T00:26:26.054Z,2.56
2019-02-20T00:31:31.258Z,2.52
2019-02-20T00:36:36.479Z,2.56
2019-02-20T00:41:41.997Z,2.47
2019-02-20T00:46:56.029Z,2.44
2019-02-20T00:52:13.571Z,2.39
2019-02-20T00:57:19.143Z,2.44
2019-02-20T01:02:24.367Z,2.35
2019-02-20T01:07:30.273Z,2.35
2019-02-20T01:12:35.454Z,2.36
2019-02-20T01:17:40.648Z,2.38
2019-02-20T01:22:46.173Z,2.34
2019-02-20T01:27:51.374Z,2.29
2019-02-20T01:32:56.819Z,2.15
2019-02-20T01:38:02.088Z,2.11
2019-02-20T01:43:07.607Z,2.07
2019-02-20T01:48:12.791Z,2.03
2019-02-20T01:53:20.051Z,2.03
2019-02-20T01:58:25.225Z,2.03
2019-02-20T02:03:30.406Z,1.90
2019-02-20T02:08:35.760Z,1.78
2019-02-20T02:13:41.256Z,1.71
2019-02-20T02:18:46.818Z,1.59
2019-02-20T02:23:52.773Z,1.67
2019-02-20T02:28:58.279Z,1.77
2019-02-20T02:34:03.463Z,1.86
2019-02-20T02:39:09.351Z,1.96
2019-02-20T02:44:14.617Z,2.06
2019-02-20T02:49:20.242Z,2.12
2019-02-20T02:54:25.839Z,2.14
2019-02-20T02:59:31.357Z,2.07
2019-02-20T03:04:36.541Z,2.08
2019-02-20T03:09:42.156Z,2.00
2019-02-20T03:14:47.339Z,1.87
2019-02-20T03:19:52.550Z,1.86
2019-02-20T03:24:57.780Z,1.85
2019-02-20T03:30:03.304Z,1.80
2019-02-20T03:35:09.440Z,1.68
2019-02-20T03:40:14.660Z,1.58
2019-02-20T03:45:20.202Z,1.56
2019-02-20T03:50:26.526Z,1.56
2019-02-20T03:55:32.051Z,1.56
2019-02-20T04:00:38.076Z,1.56
2019-02-20T04:05:43.271Z,1.60
2019-02-20T04:10:48.457Z,1.65
2019-02-20T04:15:54.741Z,1.68
2019-02-20T04:20:59.951Z,1.71
2019-02-20T04:26:05.451Z,1.71
2019-02-20T04:31:10.538Z,1.70
2019-02-20T04:36:15.759Z,1.71
2019-02-20T04:41:21.365Z,1.68
2019-02-20T04:46:27.437Z,1.64
2019-02-20T04:51:33.326Z,1.78
2019-02-20T04:56:38.492Z,1.87
2019-02-20T05:01:43.595Z,1.80
2019-02-20T05:06:48.687Z,1.69
2019-02-20T05:11:54.201Z,1.62
2019-02-20T05:16:59.398Z,1.63
2019-02-20T05:22:04.618Z,1.62
2019-02-20T05:27:10.047Z,1.61
2019-02-20T05:32:15.243Z,1.59
2019-02-20T05:37:20.830Z,1.62
2019-02-20T05:42:26.847Z,1.60
2019-02-20T05:47:32.219Z,1.59
2019-02-20T05:52:38.510Z,1.70
2019-02-20T05:57:43.928Z,1.81
2019-02-20T06:02:48.932Z,1.92
2019-02-20T06:07:54.439Z,1.91
2019-02-20T06:13:00.219Z,1.97
2019-02-20T06:18:05.803Z,1.99
2019-02-20T06:23:11.325Z,2.00
2019-02-20T06:28:16.772Z,2.06
2019-02-20T06:33:22.286Z,2.07
2019-02-20T06:38:27.308Z,2.08
2019-02-20T06:43:32.700Z,2.07
2019-02-20T06:48:38.112Z,2.04
2019-02-20T06:53:43.015Z,2.04
2019-02-20T06:58:48.239Z,2.07
2019-02-20T07:03:53.330Z,2.19
2019-02-20T07:09:22.863Z,2.19
2019-02-20T07:14:58.018Z,2.22
2019-02-20T07:20:21.943Z,2.38
2019-02-20T07:26:05.706Z,2.55
2019-02-20T07:31:10.879Z,2.70
2019-02-20T07:36:16.038Z,2.87
2019-02-20T07:41:21.193Z,3.11
2019-02-20T07:46:26.428Z,3.34
2019-02-20T07:51:32.625Z,3.52
2019-02-20T07:56:37.703Z,3.66
2019-02-20T08:01:43.029Z,3.82
2019-02-20T08:06:48.126Z,4.02
2019-02-20T08:11:53.224Z,4.18
2019-02-20T08:16:58.362Z,4.31
2019-02-20T08:22:03.491Z,4.49
2019-02-20T08:27:09.278Z,4.60
2019-02-20T08:32:14.693Z,4.72
2019-02-20T08:37:20.218Z,4.81
2019-02-20T08:42:25.630Z,4.88
2019-02-20T08:47:31.097Z,4.98
2019-02-20T08:52:36.694Z,5.12
2019-02-20T08:57:42.019Z,5.30
2019-02-20T09:02:47.176Z,5.46
2019-02-20T09:07:52.186Z,5.60
2019-02-20T09:12:57.941Z,5.70
2019-02-20T09:18:03.464Z,5.85
2019-02-20T09:23:10.127Z,5.98
2019-02-20T09:28:16.988Z,6.22
2019-02-20T09:33:22.971Z,6.37
2019-02-20T09:38:28.142Z,6.69
2019-02-20T09:43:33.302Z,7.01
2019-02-20T09:48:38.548Z,7.34
2019-02-20T09:53:43.715Z,7.52
2019-02-20T09:58:49.018Z,7.70
2019-02-20T10:03:54.209Z,7.70
2019-02-20T10:08:59.966Z,7.83
2019-02-20T10:14:05.210Z,7.84
2019-02-20T10:19:11.504Z,7.85
2019-02-20T10:24:17.633Z,8.00
2019-02-20T10:29:23.484Z,8.14
2019-02-20T10:34:29.011Z,7.98
2019-02-20T10:39:34.097Z,7.89
2019-02-20T10:44:39.190Z,7.79
2019-02-20T10:49:44.485Z,7.75
2019-02-20T10:54:57.414Z,7.80
2019-02-20T10:59:56.644Z,7.88
2019-02-20T11:05:01.814Z,7.74
2019-02-20T11:10:07.564Z,7.64
2019-02-20T11:15:13.410Z,7.58
2019-02-20T11:20:18.910Z,7.50
2019-02-20T11:25:24.150Z,7.57
2019-02-20T11:30:29.385Z,8.02
2019-02-20T11:35:34.567Z,8.51
2019-02-20T11:40:41.130Z,8.92
2019-02-20T11:45:46.368Z,9.29
2019-02-20T11:50:52.566Z,9.34
2019-02-20T11:55:57.796Z,9.24
2019-02-20T12:01:04.002Z,9.19
2019-02-20T12:06:10.429Z,8.85
2019-02-20T12:11:15.875Z,8.82
2019-02-20T12:16:21.103Z,8.89
2019-02-20T12:21:26.289Z,9.07
2019-02-20T12:26:35.154Z,9.27
2019-02-20T12:31:38.470Z,9.56
2019-02-20T12:36:43.758Z,9.54
2019-02-20T12:41:49.189Z,9.42
2019-02-20T12:46:54.556Z,9.63
2019-02-20T12:52:00.178Z,9.52
2019-02-20T12:57:08.073Z,9.57
2019-02-20T13:02:13.385Z,9.62
2019-02-20T13:07:18.792Z,9.50
2019-02-20T13:12:23.963Z,9.18
2019-02-20T13:17:29.735Z,9.36
2019-02-20T13:22:35.298Z,9.28
2019-02-20T13:27:40.550Z,9.09
2019-02-20T13:32:47.169Z,9.31
2019-02-20T13:37:52.365Z,9.28
2019-02-20T13:42:57.455Z,9.20
2019-02-20T13:48:02.696Z,9.17
2019-02-20T13:53:07.929Z,9.17
2019-02-20T13:58:13.967Z,9.02
2019-02-20T14:03:19.548Z,9.02
2019-02-20T14:08:24.779Z,8.86
2019-02-20T14:13:29.905Z,8.90
2019-02-20T14:18:35.361Z,8.79
2019-02-20T14:23:40.535Z,8.77
2019-02-20T14:28:45.963Z,8.80
2019-02-20T14:33:51.933Z,8.80
2019-02-20T14:38:57.376Z,8.74
2019-02-20T14:44:02.607Z,8.70
2019-02-20T14:49:09.480Z,8.65
2019-02-20T14:54:15.133Z,8.58
2019-02-20T14:59:20.355Z,8.64
2019-02-20T15:04:27.113Z,8.56
2019-02-20T15:09:32.677Z,8.60
2019-02-20T15:14:38.691Z,8.61
2019-02-20T15:19:45.124Z,8.54
2019-02-20T15:24:50.862Z,8.56
2019-02-20T15:29:56.715Z,8.52
2019-02-20T15:35:01.885Z,8.49
2019-02-20T15:40:08.304Z,8.49
2019-02-20T15:45:13.750Z,8.46
2019-02-20T15:50:18.981Z,8.38
2019-02-20T15:55:24.507Z,8.31
2019-02-20T16:00:29.769Z,8.27
2019-02-20T16:05:35.549Z,8.27
2019-02-20T16:10:40.789Z,8.24
2019-02-20T16:15:45.966Z,8.17
2019-02-20T16:20:51.232Z,8.08
2019-02-20T16:25:56.742Z,8.01
2019-02-20T16:31:02.170Z,7.88
2019-02-20T16:36:07.396Z,7.82
2019-02-20T16:41:13.401Z,7.79
2019-02-20T16:46:19.663Z,7.79
2019-02-20T16:51:24.914Z,7.68
2019-02-20T16:56:30.157Z,7.69
2019-02-20T17:01:35.954Z,7.74
2019-02-20T17:06:41.310Z,7.68
2019-02-20T17:11:46.804Z,7.73
2019-02-20T17:16:52.199Z,7.59
2019-02-20T17:21:58.213Z,7.64
2019-02-20T17:27:03.444Z,7.51
2019-02-20T17:32:08.785Z,7.51
2019-02-20T17:37:14.339Z,7.53
2019-02-20T17:42:19.847Z,7.48
2019-02-20T17:47:25.091Z,7.47
2019-02-20T17:52:30.267Z,7.44
2019-02-20T17:57:35.504Z,7.40
2019-02-20T18:02:40.830Z,7.34
2019-02-20T18:07:49.725Z,7.35
2019-02-20T18:12:52.959Z,7.34
2019-02-20T18:17:58.127Z,7.28
2019-02-20T18:23:03.455Z,7.23
2019-02-20T18:28:08.701Z,7.16
2019-02-20T18:33:13.879Z,7.10
2019-02-20T18:38:20.672Z,7.03
2019-02-20T18:43:27.572Z,6.94
2019-02-20T18:48:33.702Z,6.82
2019-02-20T18:53:39.203Z,6.77
2019-02-20T18:58:45.392Z,6.73
2019-02-20T19:03:51.664Z,6.56
2019-02-20T19:09:07.046Z,6.45
2019-02-20T19:14:19.707Z,6.37
2019-02-20T19:20:18.209Z,6.28
2019-02-20T19:26:08.353Z,6.23
2019-02-20T19:32:21.303Z,6.22
2019-02-20T19:37:47.742Z,6.24
2019-02-20T19:43:27.507Z,6.30
2019-02-20T19:48:59.009Z,6.36
2019-02-20T19:54:37.957Z,6.38
2019-02-20T20:00:09.945Z,6.38
2019-02-20T20:06:23.606Z,6.36
2019-02-20T20:12:27.186Z,6.36
2019-02-20T20:17:55.401Z,6.33
2019-02-20T20:23:32.468Z,6.32
2019-02-20T20:29:06.174Z,6.28
2019-02-20T20:34:47.224Z,6.22
2019-02-20T20:40:33.634Z,6.15
2019-02-20T20:45:48.931Z,6.03
2019-02-20T20:51:30.137Z,5.90
2019-02-20T20:57:04.982Z,5.80
2019-02-20T21:02:27.131Z,5.69
2019-02-20T21:08:03.394Z,5.54
2019-02-20T21:13:31.762Z,5.45
2019-02-20T21:19:21.553Z,5.33
2019-02-20T21:24:47.352Z,5.27
2019-02-20T21:29:59.252Z,5.25
2019-02-20T21:35:31.439Z,5.23
2019-02-20T21:40:55.006Z,5.18
2019-02-20T21:47:02.539Z,5.17
2019-02-20T21:53:04.097Z,5.13
2019-02-20T21:58:41.323Z,5.09
2019-02-20T22:04:33.472Z,5.02
2019-02-20T22:10:16.596Z,4.95
2019-02-20T22:15:59.963Z,4.84
2019-02-20T22:21:43.360Z,4.77
2019-02-20T22:27:29.281Z,4.72
2019-02-20T22:33:02.654Z,4.66
2019-02-20T22:38:56.349Z,4.59
2019-02-20T22:44:50.592Z,4.53
2019-02-20T22:50:48.256Z,4.43
2019-02-20T22:56:20.102Z,4.40
2019-02-20T23:01:51.851Z,4.44
2019-02-20T23:07:38.612Z,4.44
2019-02-20T23:13:22.377Z,4.45
2019-02-20T23:18:27.924Z,4.43
2019-02-20T23:23:33.869Z,4.41
2019-02-20T23:28:39.239Z,4.39
2019-02-20T23:33:45.117Z,4.32
2019-02-20T23:38:51.098Z,4.25
2019-02-20T23:43:56.592Z,4.16
2019-02-20T23:49:02.063Z,4.11
2019-02-20T23:54:07.909Z,4.00
2019-02-20T23:59:14.318Z,3.98
